sensor_id;sensor_type;location;lat;lon;timestamp;temperature;humidity
38514;DHT22;24282;48.400;10.808;2023-03-21T00:01:04;8.30;76.00
38514;DHT22;24282;48.400;10.808;2023-03-21T00:03:32;8.30;76.10
38514;DHT22;24282;48.400;10.808;2023-03-21T00:05:58;8.30;76.20
38514;DHT22;24282;48.400;10.808;2023-03-21T00:08:25;8.30;76.30
38514;DHT22;24282;48.400;10.808;2023-03-21T00:10:59;8.30;76.40
38514;DHT22;24282;48.400;10.808;2023-03-21T00:13:27;8.30;76.60
38514;DHT22;24282;48.400;10.808;2023-03-21T00:18:29;8.20;76.50
38514;DHT22;24282;48.400;10.808;2023-03-21T00:21:02;8.20;76.60
38514;DHT22;24282;48.400;10.808;2023-03-21T00:23:29;8.20;76.60
38514;DHT22;24282;48.400;10.808;2023-03-21T00:25:56;8.20;76.60
38514;DHT22;24282;48.400;10.808;2023-03-21T00:28:22;8.20;76.70
38514;DHT22;24282;48.400;10.808;2023-03-21T00:30:48;8.20;76.70
38514;DHT22;24282;48.400;10.808;2023-03-21T00:33:14;8.20;76.80
38514;DHT22;24282;48.400;10.808;2023-03-21T00:35:41;8.20;76.90
38514;DHT22;24282;48.400;10.808;2023-03-21T00:38:13;8.20;76.80
38514;DHT22;24282;48.400;10.808;2023-03-21T00:40:39;8.20;76.70
38514;DHT22;24282;48.400;10.808;2023-03-21T00:43:05;8.20;76.70
38514;DHT22;24282;48.400;10.808;2023-03-21T00:45:31;8.30;76.70
38514;DHT22;24282;48.400;10.808;2023-03-21T00:47:59;8.20;76.80
38514;DHT22;24282;48.400;10.808;2023-03-21T00:50:27;8.20;76.90
38514;DHT22;24282;48.400;10.808;2023-03-21T00:52:53;8.20;76.90
38514;DHT22;24282;48.400;10.808;2023-03-21T00:55:19;8.20;76.90
38514;DHT22;24282;48.400;10.808;2023-03-21T00:57:45;8.20;77.00
38514;DHT22;24282;48.400;10.808;2023-03-21T01:00:12;8.20;77.10
38514;DHT22;24282;48.400;10.808;2023-03-21T01:02:40;8.20;77.20
38514;DHT22;24282;48.400;10.808;2023-03-21T01:05:26;8.20;77.30
38514;DHT22;24282;48.400;10.808;2023-03-21T01:08:14;8.20;77.20
38514;DHT22;24282;48.400;10.808;2023-03-21T01:10:43;8.20;77.20
38514;DHT22;24282;48.400;10.808;2023-03-21T01:13:10;8.20;77.40
38514;DHT22;24282;48.400;10.808;2023-03-21T01:15:42;8.10;77.40
38514;DHT22;24282;48.400;10.808;2023-03-21T01:18:08;8.10;77.40
38514;DHT22;24282;48.400;10.808;2023-03-21T01:20:34;8.10;77.30
38514;DHT22;24282;48.400;10.808;2023-03-21T01:23:00;8.10;77.30
38514;DHT22;24282;48.400;10.808;2023-03-21T01:25:26;8.10;77.20
38514;DHT22;24282;48.400;10.808;2023-03-21T01:27:51;8.20;77.10
38514;DHT22;24282;48.400;10.808;2023-03-21T01:30:19;8.10;77.20
38514;DHT22;24282;48.400;10.808;2023-03-21T01:32:46;8.10;77.30
38514;DHT22;24282;48.400;10.808;2023-03-21T01:35:12;8.10;77.40
38514;DHT22;24282;48.400;10.808;2023-03-21T01:37:38;8.10;77.50
38514;DHT22;24282;48.400;10.808;2023-03-21T01:40:04;8.10;77.60
38514;DHT22;24282;48.400;10.808;2023-03-21T01:42:31;8.10;77.50
38514;DHT22;24282;48.400;10.808;2023-03-21T01:47:33;8.10;77.60
38514;DHT22;24282;48.400;10.808;2023-03-21T01:50:28;8.10;77.70
38514;DHT22;24282;48.400;10.808;2023-03-21T01:53:25;8.10;77.70
38514;DHT22;24282;48.400;10.808;2023-03-21T01:56:05;8.10;77.70
38514;DHT22;24282;48.400;10.808;2023-03-21T01:58:55;8.10;77.70
38514;DHT22;24282;48.400;10.808;2023-03-21T02:01:48;8.10;77.80
38514;DHT22;24282;48.400;10.808;2023-03-21T02:04:18;8.10;77.70
38514;DHT22;24282;48.400;10.808;2023-03-21T02:07:14;8.10;77.70
38514;DHT22;24282;48.400;10.808;2023-03-21T02:09:51;8.10;77.80
38514;DHT22;24282;48.400;10.808;2023-03-21T02:12:20;8.10;77.80
38514;DHT22;24282;48.400;10.808;2023-03-21T02:14:48;8.00;77.80
38514;DHT22;24282;48.400;10.808;2023-03-21T02:28:25;8.00;78.20
38514;DHT22;24282;48.400;10.808;2023-03-21T02:39:38;8.00;78.30
38514;DHT22;24282;48.400;10.808;2023-03-21T02:42:06;8.00;78.50
38514;DHT22;24282;48.400;10.808;2023-03-21T02:45:15;8.00;78.60
38514;DHT22;24282;48.400;10.808;2023-03-21T02:47:53;8.00;78.70
38514;DHT22;24282;48.400;10.808;2023-03-21T02:50:42;8.00;78.80
38514;DHT22;24282;48.400;10.808;2023-03-21T02:53:13;8.00;78.80
38514;DHT22;24282;48.400;10.808;2023-03-21T02:55:42;8.00;78.80
38514;DHT22;24282;48.400;10.808;2023-03-21T02:58:11;8.00;78.80
38514;DHT22;24282;48.400;10.808;2023-03-21T03:00:39;8.00;78.80
38514;DHT22;24282;48.400;10.808;2023-03-21T03:03:10;8.00;78.90
38514;DHT22;24282;48.400;10.808;2023-03-21T03:05:48;8.00;79.00
38514;DHT22;24282;48.400;10.808;2023-03-21T03:11:19;8.00;79.40
38514;DHT22;24282;48.400;10.808;2023-03-21T03:17:26;8.00;79.50
38514;DHT22;24282;48.400;10.808;2023-03-21T03:22:27;8.00;79.70
38514;DHT22;24282;48.400;10.808;2023-03-21T03:24:59;7.90;79.70
38514;DHT22;24282;48.400;10.808;2023-03-21T03:27:29;7.90;79.70
38514;DHT22;24282;48.400;10.808;2023-03-21T03:30:02;7.90;79.80
38514;DHT22;24282;48.400;10.808;2023-03-21T03:32:44;7.90;79.90
38514;DHT22;24282;48.400;10.808;2023-03-21T03:35:17;7.90;80.00
38514;DHT22;24282;48.400;10.808;2023-03-21T03:37:47;7.90;80.00
38514;DHT22;24282;48.400;10.808;2023-03-21T03:40:14;7.90;80.00
38514;DHT22;24282;48.400;10.808;2023-03-21T03:42:56;7.90;80.10
38514;DHT22;24282;48.400;10.808;2023-03-21T03:45:34;7.90;80.00
38514;DHT22;24282;48.400;10.808;2023-03-21T03:49:03;7.90;80.00
38514;DHT22;24282;48.400;10.808;2023-03-21T03:51:29;7.80;80.00
38514;DHT22;24282;48.400;10.808;2023-03-21T03:54:30;7.80;80.10
38514;DHT22;24282;48.400;10.808;2023-03-21T03:56:58;7.80;80.20
38514;DHT22;24282;48.400;10.808;2023-03-21T03:59:24;7.80;80.20
38514;DHT22;24282;48.400;10.808;2023-03-21T04:02:17;7.80;80.30
38514;DHT22;24282;48.400;10.808;2023-03-21T04:04:45;7.80;80.40
38514;DHT22;24282;48.400;10.808;2023-03-21T04:07:12;7.80;80.50
38514;DHT22;24282;48.400;10.808;2023-03-21T04:09:39;7.80;80.60
38514;DHT22;24282;48.400;10.808;2023-03-21T04:12:06;7.80;80.80
38514;DHT22;24282;48.400;10.808;2023-03-21T04:14:32;7.80;80.80
38514;DHT22;24282;48.400;10.808;2023-03-21T04:16:58;7.80;80.80
38514;DHT22;24282;48.400;10.808;2023-03-21T04:19:24;7.80;80.70
38514;DHT22;24282;48.400;10.808;2023-03-21T04:21:51;7.80;80.80
38514;DHT22;24282;48.400;10.808;2023-03-21T04:24:18;7.80;80.80
38514;DHT22;24282;48.400;10.808;2023-03-21T04:26:47;7.80;80.80
38514;DHT22;24282;48.400;10.808;2023-03-21T04:29:48;7.80;80.90
38514;DHT22;24282;48.400;10.808;2023-03-21T04:32:32;7.80;80.90
38514;DHT22;24282;48.400;10.808;2023-03-21T04:35:09;7.80;80.90
38514;DHT22;24282;48.400;10.808;2023-03-21T04:37:36;7.80;81.00
38514;DHT22;24282;48.400;10.808;2023-03-21T04:40:05;7.70;81.00
38514;DHT22;24282;48.400;10.808;2023-03-21T04:42:33;7.70;81.10
38514;DHT22;24282;48.400;10.808;2023-03-21T04:45:00;7.80;81.10
38514;DHT22;24282;48.400;10.808;2023-03-21T04:47:26;7.70;81.00
38514;DHT22;24282;48.400;10.808;2023-03-21T04:49:53;7.80;81.00
38514;DHT22;24282;48.400;10.808;2023-03-21T04:52:19;7.70;81.10
38514;DHT22;24282;48.400;10.808;2023-03-21T04:54:46;7.80;81.10
38514;DHT22;24282;48.400;10.808;2023-03-21T04:57:11;7.80;81.10
38514;DHT22;24282;48.400;10.808;2023-03-21T04:59:37;7.80;81.00
38514;DHT22;24282;48.400;10.808;2023-03-21T05:02:03;7.70;81.10
38514;DHT22;24282;48.400;10.808;2023-03-21T05:04:30;7.70;81.20
38514;DHT22;24282;48.400;10.808;2023-03-21T05:06:56;7.70;81.30
38514;DHT22;24282;48.400;10.808;2023-03-21T05:09:22;7.70;81.20
38514;DHT22;24282;48.400;10.808;2023-03-21T05:11:48;7.70;81.20
38514;DHT22;24282;48.400;10.808;2023-03-21T05:14:17;7.70;81.30
38514;DHT22;24282;48.400;10.808;2023-03-21T05:16:44;7.70;81.30
38514;DHT22;24282;48.400;10.808;2023-03-21T05:19:14;7.70;81.30
38514;DHT22;24282;48.400;10.808;2023-03-21T05:21:42;7.70;81.50
38514;DHT22;24282;48.400;10.808;2023-03-21T05:24:18;7.70;81.50
38514;DHT22;24282;48.400;10.808;2023-03-21T05:26:45;7.70;81.30
38514;DHT22;24282;48.400;10.808;2023-03-21T05:29:17;7.70;81.30
38514;DHT22;24282;48.400;10.808;2023-03-21T05:31:49;7.70;81.30
38514;DHT22;24282;48.400;10.808;2023-03-21T05:34:16;7.70;81.30
38514;DHT22;24282;48.400;10.808;2023-03-21T05:36:42;7.70;81.30
38514;DHT22;24282;48.400;10.808;2023-03-21T05:39:09;7.70;81.30
38514;DHT22;24282;48.400;10.808;2023-03-21T05:41:40;7.70;81.30
38514;DHT22;24282;48.400;10.808;2023-03-21T05:44:07;7.70;81.30
38514;DHT22;24282;48.400;10.808;2023-03-21T05:46:33;7.70;81.20
38514;DHT22;24282;48.400;10.808;2023-03-21T05:48:59;7.70;81.30
38514;DHT22;24282;48.400;10.808;2023-03-21T05:51:25;7.70;81.30
38514;DHT22;24282;48.400;10.808;2023-03-21T05:53:51;7.70;81.30
38514;DHT22;24282;48.400;10.808;2023-03-21T05:56:17;7.70;81.30
38514;DHT22;24282;48.400;10.808;2023-03-21T05:59:03;7.70;81.40
38514;DHT22;24282;48.400;10.808;2023-03-21T06:01:33;7.70;81.40
38514;DHT22;24282;48.400;10.808;2023-03-21T06:04:07;7.70;81.30
38514;DHT22;24282;48.400;10.808;2023-03-21T06:06:33;7.70;81.30
38514;DHT22;24282;48.400;10.808;2023-03-21T06:09:00;7.70;81.30
38514;DHT22;24282;48.400;10.808;2023-03-21T06:11:29;7.80;81.40
38514;DHT22;24282;48.400;10.808;2023-03-21T06:14:19;7.80;81.50
38514;DHT22;24282;48.400;10.808;2023-03-21T06:16:56;7.80;81.40
38514;DHT22;24282;48.400;10.808;2023-03-21T06:19:23;7.80;81.20
38514;DHT22;24282;48.400;10.808;2023-03-21T06:22:15;7.80;81.20
38514;DHT22;24282;48.400;10.808;2023-03-21T06:24:41;7.80;81.30
38514;DHT22;24282;48.400;10.808;2023-03-21T06:27:06;7.80;81.20
38514;DHT22;24282;48.400;10.808;2023-03-21T06:29:46;7.80;81.10
38514;DHT22;24282;48.400;10.808;2023-03-21T06:32:13;7.90;81.10
38514;DHT22;24282;48.400;10.808;2023-03-21T06:34:39;7.90;81.10
38514;DHT22;24282;48.400;10.808;2023-03-21T06:37:05;7.80;81.10
38514;DHT22;24282;48.400;10.808;2023-03-21T06:39:33;7.90;81.10
38514;DHT22;24282;48.400;10.808;2023-03-21T06:41:59;7.90;81.10
38514;DHT22;24282;48.400;10.808;2023-03-21T06:44:26;7.90;81.10
38514;DHT22;24282;48.400;10.808;2023-03-21T06:46:58;7.90;81.20
38514;DHT22;24282;48.400;10.808;2023-03-21T06:49:23;7.90;81.30
38514;DHT22;24282;48.400;10.808;2023-03-21T06:51:50;8.00;81.30
38514;DHT22;24282;48.400;10.808;2023-03-21T06:54:18;8.00;81.20
38514;DHT22;24282;48.400;10.808;2023-03-21T06:56:53;8.00;81.20
38514;DHT22;24282;48.400;10.808;2023-03-21T06:59:25;8.00;81.10
38514;DHT22;24282;48.400;10.808;2023-03-21T07:01:58;8.00;81.10
38514;DHT22;24282;48.400;10.808;2023-03-21T07:04:24;8.10;81.10
38514;DHT22;24282;48.400;10.808;2023-03-21T07:06:52;8.10;81.10
38514;DHT22;24282;48.400;10.808;2023-03-21T07:09:20;8.10;81.10
38514;DHT22;24282;48.400;10.808;2023-03-21T07:11:49;8.10;81.10
38514;DHT22;24282;48.400;10.808;2023-03-21T07:14:19;8.20;81.10
38514;DHT22;24282;48.400;10.808;2023-03-21T07:16:45;8.20;81.10
38514;DHT22;24282;48.400;10.808;2023-03-21T07:19:12;8.20;81.10
38514;DHT22;24282;48.400;10.808;2023-03-21T07:21:38;8.30;81.00
38514;DHT22;24282;48.400;10.808;2023-03-21T07:24:03;8.30;81.00
38514;DHT22;24282;48.400;10.808;2023-03-21T07:26:30;8.30;80.90
38514;DHT22;24282;48.400;10.808;2023-03-21T07:28:57;8.40;80.90
38514;DHT22;24282;48.400;10.808;2023-03-21T07:31:23;8.40;80.80
38514;DHT22;24282;48.400;10.808;2023-03-21T07:33:52;8.40;80.80
38514;DHT22;24282;48.400;10.808;2023-03-21T07:36:18;8.50;80.70
38514;DHT22;24282;48.400;10.808;2023-03-21T07:38:44;8.50;80.60
38514;DHT22;24282;48.400;10.808;2023-03-21T07:41:11;8.50;80.50
38514;DHT22;24282;48.400;10.808;2023-03-21T07:43:37;8.60;80.30
38514;DHT22;24282;48.400;10.808;2023-03-21T07:46:07;8.60;80.10
38514;DHT22;24282;48.400;10.808;2023-03-21T07:48:33;8.60;80.10
38514;DHT22;24282;48.400;10.808;2023-03-21T07:51:00;8.70;80.10
38514;DHT22;24282;48.400;10.808;2023-03-21T07:53:26;8.70;79.90
38514;DHT22;24282;48.400;10.808;2023-03-21T07:55:53;8.70;79.80
38514;DHT22;24282;48.400;10.808;2023-03-21T07:58:24;8.80;79.90
38514;DHT22;24282;48.400;10.808;2023-03-21T08:00:51;8.90;79.90
38514;DHT22;24282;48.400;10.808;2023-03-21T08:03:17;8.90;79.70
38514;DHT22;24282;48.400;10.808;2023-03-21T08:05:43;8.90;79.70
38514;DHT22;24282;48.400;10.808;2023-03-21T08:08:10;9.00;79.70
38514;DHT22;24282;48.400;10.808;2023-03-21T08:10:35;9.00;79.60
38514;DHT22;24282;48.400;10.808;2023-03-21T08:13:02;9.00;79.30
38514;DHT22;24282;48.400;10.808;2023-03-21T08:15:28;9.10;79.10
38514;DHT22;24282;48.400;10.808;2023-03-21T08:17:53;9.10;79.00
38514;DHT22;24282;48.400;10.808;2023-03-21T08:20:21;9.20;78.80
38514;DHT22;24282;48.400;10.808;2023-03-21T08:22:48;9.20;78.50
38514;DHT22;24282;48.400;10.808;2023-03-21T08:25:15;9.20;78.30
38514;DHT22;24282;48.400;10.808;2023-03-21T08:27:44;9.30;78.10
38514;DHT22;24282;48.400;10.808;2023-03-21T08:30:12;9.40;78.00
38514;DHT22;24282;48.400;10.808;2023-03-21T08:32:39;9.40;77.80
38514;DHT22;24282;48.400;10.808;2023-03-21T08:35:08;9.40;77.60
38514;DHT22;24282;48.400;10.808;2023-03-21T08:37:36;9.50;77.30
38514;DHT22;24282;48.400;10.808;2023-03-21T08:40:03;9.50;76.90
38514;DHT22;24282;48.400;10.808;2023-03-21T08:42:32;9.60;76.70
38514;DHT22;24282;48.400;10.808;2023-03-21T08:44:58;9.70;76.80
38514;DHT22;24282;48.400;10.808;2023-03-21T08:47:23;9.70;76.70
38514;DHT22;24282;48.400;10.808;2023-03-21T08:49:49;9.80;76.30
38514;DHT22;24282;48.400;10.808;2023-03-21T08:52:15;9.80;75.90
38514;DHT22;24282;48.400;10.808;2023-03-21T08:54:41;9.90;75.60
38514;DHT22;24282;48.400;10.808;2023-03-21T08:57:07;9.90;75.10
38514;DHT22;24282;48.400;10.808;2023-03-21T08:59:33;10.00;74.60
38514;DHT22;24282;48.400;10.808;2023-03-21T09:01:59;10.00;74.10
38514;DHT22;24282;48.400;10.808;2023-03-21T09:04:25;10.10;74.20
38514;DHT22;24282;48.400;10.808;2023-03-21T09:06:51;10.10;73.70
38514;DHT22;24282;48.400;10.808;2023-03-21T09:09:17;10.20;72.90
38514;DHT22;24282;48.400;10.808;2023-03-21T09:11:43;10.30;71.70
38514;DHT22;24282;48.400;10.808;2023-03-21T09:14:09;10.40;71.20
38514;DHT22;24282;48.400;10.808;2023-03-21T09:16:36;10.40;71.40
38514;DHT22;24282;48.400;10.808;2023-03-21T09:19:02;10.50;71.40
38514;DHT22;24282;48.400;10.808;2023-03-21T09:21:29;10.50;71.50
38514;DHT22;24282;48.400;10.808;2023-03-21T09:23:56;10.60;71.40
38514;DHT22;24282;48.400;10.808;2023-03-21T09:26:24;10.60;71.20
38514;DHT22;24282;48.400;10.808;2023-03-21T09:28:52;10.70;70.50
38514;DHT22;24282;48.400;10.808;2023-03-21T09:31:18;10.80;70.00
38514;DHT22;24282;48.400;10.808;2023-03-21T09:33:49;10.90;69.40
38514;DHT22;24282;48.400;10.808;2023-03-21T09:36:15;11.00;69.80
38514;DHT22;24282;48.400;10.808;2023-03-21T09:38:45;11.00;70.10
38514;DHT22;24282;48.400;10.808;2023-03-21T09:49:06;11.60;69.70
38514;DHT22;24282;48.400;10.808;2023-03-21T09:51:39;11.60;69.10
38514;DHT22;24282;48.400;10.808;2023-03-21T09:54:21;11.70;68.60
38514;DHT22;24282;48.400;10.808;2023-03-21T09:56:51;11.70;67.20
38514;DHT22;24282;48.400;10.808;2023-03-21T09:59:28;11.70;67.40
38514;DHT22;24282;48.400;10.808;2023-03-21T10:01:56;11.70;67.70
38514;DHT22;24282;48.400;10.808;2023-03-21T10:04:24;11.70;67.40
38514;DHT22;24282;48.400;10.808;2023-03-21T10:06:59;11.70;67.10
38514;DHT22;24282;48.400;10.808;2023-03-21T10:09:27;11.70;66.80
38514;DHT22;24282;48.400;10.808;2023-03-21T10:12:33;11.80;67.20
38514;DHT22;24282;48.400;10.808;2023-03-21T10:14:56;11.90;67.30
38514;DHT22;24282;48.400;10.808;2023-03-21T10:17:31;12.00;66.20
38514;DHT22;24282;48.400;10.808;2023-03-21T10:22:39;12.10;65.60
38514;DHT22;24282;48.400;10.808;2023-03-21T10:25:06;12.20;66.00
38514;DHT22;24282;48.400;10.808;2023-03-21T10:27:33;12.30;65.60
38514;DHT22;24282;48.400;10.808;2023-03-21T10:30:02;12.40;65.80
38514;DHT22;24282;48.400;10.808;2023-03-21T10:32:32;12.40;65.30
38514;DHT22;24282;48.400;10.808;2023-03-21T10:34:59;12.40;64.90
38514;DHT22;24282;48.400;10.808;2023-03-21T10:37:25;12.50;65.00
38514;DHT22;24282;48.400;10.808;2023-03-21T10:39:52;12.50;64.60
38514;DHT22;24282;48.400;10.808;2023-03-21T10:44:48;12.70;64.50
38514;DHT22;24282;48.400;10.808;2023-03-21T10:49:47;12.80;63.30
38514;DHT22;24282;48.400;10.808;2023-03-21T10:52:17;12.80;63.20
38514;DHT22;24282;48.400;10.808;2023-03-21T10:54:44;12.90;63.10
38514;DHT22;24282;48.400;10.808;2023-03-21T10:57:21;12.90;63.50
38514;DHT22;24282;48.400;10.808;2023-03-21T10:59:55;13.00;63.20
38514;DHT22;24282;48.400;10.808;2023-03-21T11:02:34;13.10;62.90
38514;DHT22;24282;48.400;10.808;2023-03-21T11:05:07;13.10;62.50
38514;DHT22;24282;48.400;10.808;2023-03-21T11:07:39;13.20;62.50
38514;DHT22;24282;48.400;10.808;2023-03-21T11:10:26;13.30;62.20
38514;DHT22;24282;48.400;10.808;2023-03-21T11:12:55;13.30;61.90
38514;DHT22;24282;48.400;10.808;2023-03-21T11:15:40;13.40;61.70
38514;DHT22;24282;48.400;10.808;2023-03-21T11:18:19;13.40;61.40
38514;DHT22;24282;48.400;10.808;2023-03-21T11:20:52;13.50;61.40
38514;DHT22;24282;48.400;10.808;2023-03-21T11:23:19;13.50;61.30
38514;DHT22;24282;48.400;10.808;2023-03-21T11:25:47;13.60;60.70
38514;DHT22;24282;48.400;10.808;2023-03-21T11:28:22;13.70;60.10
38514;DHT22;24282;48.400;10.808;2023-03-21T11:30:51;13.70;60.00
38514;DHT22;24282;48.400;10.808;2023-03-21T11:33:20;13.70;60.60
38514;DHT22;24282;48.400;10.808;2023-03-21T11:36:31;13.80;59.80
38514;DHT22;24282;48.400;10.808;2023-03-21T11:38:51;13.90;59.20
38514;DHT22;24282;48.400;10.808;2023-03-21T11:41:28;13.90;58.90
38514;DHT22;24282;48.400;10.808;2023-03-21T11:43:55;13.90;59.40
38514;DHT22;24282;48.400;10.808;2023-03-21T11:46:29;14.00;59.60
38514;DHT22;24282;48.400;10.808;2023-03-21T11:48:56;14.30;59.30
38514;DHT22;24282;48.400;10.808;2023-03-21T11:56:44;14.90;57.60
38514;DHT22;24282;48.400;10.808;2023-03-21T12:18:03;15.20;55.20
38514;DHT22;24282;48.400;10.808;2023-03-21T12:20:52;15.30;55.10
38514;DHT22;24282;48.400;10.808;2023-03-21T12:26:07;15.40;54.20
38514;DHT22;24282;48.400;10.808;2023-03-21T12:39:29;16.20;51.50
38514;DHT22;24282;48.400;10.808;2023-03-21T12:42:23;16.30;50.60
38514;DHT22;24282;48.400;10.808;2023-03-21T12:45:04;16.30;50.50
38514;DHT22;24282;48.400;10.808;2023-03-21T12:47:35;16.40;49.70
38514;DHT22;24282;48.400;10.808;2023-03-21T12:52:48;16.40;50.00
38514;DHT22;24282;48.400;10.808;2023-03-21T12:55:20;16.40;48.60
38514;DHT22;24282;48.400;10.808;2023-03-21T12:57:54;16.40;50.00
38514;DHT22;24282;48.400;10.808;2023-03-21T13:00:25;16.40;50.00
38514;DHT22;24282;48.400;10.808;2023-03-21T13:03:02;16.40;51.10
38514;DHT22;24282;48.400;10.808;2023-03-21T13:05:32;16.30;51.30
38514;DHT22;24282;48.400;10.808;2023-03-21T13:08:04;16.30;50.00
38514;DHT22;24282;48.400;10.808;2023-03-21T13:10:33;16.30;49.60
38514;DHT22;24282;48.400;10.808;2023-03-21T13:13:11;16.20;49.80
38514;DHT22;24282;48.400;10.808;2023-03-21T13:20:52;16.10;51.10
38514;DHT22;24282;48.400;10.808;2023-03-21T13:23:39;16.20;50.60
38514;DHT22;24282;48.400;10.808;2023-03-21T13:26:11;16.20;50.30
38514;DHT22;24282;48.400;10.808;2023-03-21T13:28:39;16.20;50.70
38514;DHT22;24282;48.400;10.808;2023-03-21T13:33:41;16.20;50.70
38514;DHT22;24282;48.400;10.808;2023-03-21T13:36:15;16.10;50.70
38514;DHT22;24282;48.400;10.808;2023-03-21T13:38:49;16.20;50.40
38514;DHT22;24282;48.400;10.808;2023-03-21T13:41:19;16.20;50.30
38514;DHT22;24282;48.400;10.808;2023-03-21T13:56:59;16.20;50.70
38514;DHT22;24282;48.400;10.808;2023-03-21T13:59:45;16.20;51.20
38514;DHT22;24282;48.400;10.808;2023-03-21T14:05:06;16.10;51.00
38514;DHT22;24282;48.400;10.808;2023-03-21T14:07:35;16.10;51.60
38514;DHT22;24282;48.400;10.808;2023-03-21T14:10:12;16.10;51.90
38514;DHT22;24282;48.400;10.808;2023-03-21T14:12:42;16.10;51.70
38514;DHT22;24282;48.400;10.808;2023-03-21T14:15:23;16.10;52.10
38514;DHT22;24282;48.400;10.808;2023-03-21T14:17:54;16.20;52.50
38514;DHT22;24282;48.400;10.808;2023-03-21T14:20:27;16.20;52.20
38514;DHT22;24282;48.400;10.808;2023-03-21T14:22:53;16.10;52.20
38514;DHT22;24282;48.400;10.808;2023-03-21T14:25:21;16.20;51.90
38514;DHT22;24282;48.400;10.808;2023-03-21T14:27:53;16.20;51.90
38514;DHT22;24282;48.400;10.808;2023-03-21T14:32:59;16.20;52.10
38514;DHT22;24282;48.400;10.808;2023-03-21T14:35:30;16.10;52.30
38514;DHT22;24282;48.400;10.808;2023-03-21T14:38:02;16.10;52.50
38514;DHT22;24282;48.400;10.808;2023-03-21T14:40:28;16.00;52.60
38514;DHT22;24282;48.400;10.808;2023-03-21T14:42:54;16.00;52.20
38514;DHT22;24282;48.400;10.808;2023-03-21T14:45:29;16.00;51.40
38514;DHT22;24282;48.400;10.808;2023-03-21T14:53:07;15.80;53.20
38514;DHT22;24282;48.400;10.808;2023-03-21T14:55:45;15.80;53.20
38514;DHT22;24282;48.400;10.808;2023-03-21T14:58:13;15.70;53.50
38514;DHT22;24282;48.400;10.808;2023-03-21T15:00:40;15.70;53.70
38514;DHT22;24282;48.400;10.808;2023-03-21T15:03:06;15.60;53.70
38514;DHT22;24282;48.400;10.808;2023-03-21T15:05:34;15.60;54.20
38514;DHT22;24282;48.400;10.808;2023-03-21T15:08:22;15.60;53.40
38514;DHT22;24282;48.400;10.808;2023-03-21T15:10:58;15.50;53.30
38514;DHT22;24282;48.400;10.808;2023-03-21T15:13:27;15.50;53.50
38514;DHT22;24282;48.400;10.808;2023-03-21T15:15:53;15.50;52.60
38514;DHT22;24282;48.400;10.808;2023-03-21T15:18:34;15.40;53.40
38514;DHT22;24282;48.400;10.808;2023-03-21T15:21:29;15.40;53.70
38514;DHT22;24282;48.400;10.808;2023-03-21T15:24:23;15.40;55.00
38514;DHT22;24282;48.400;10.808;2023-03-21T15:27:01;15.30;54.10
38514;DHT22;24282;48.400;10.808;2023-03-21T15:29:27;15.30;54.00
38514;DHT22;24282;48.400;10.808;2023-03-21T15:31:53;15.20;54.20
38514;DHT22;24282;48.400;10.808;2023-03-21T15:34:22;15.20;54.40
38514;DHT22;24282;48.400;10.808;2023-03-21T15:36:54;15.20;54.20
38514;DHT22;24282;48.400;10.808;2023-03-21T15:39:21;15.20;54.90
38514;DHT22;24282;48.400;10.808;2023-03-21T15:44:48;15.10;55.20
38514;DHT22;24282;48.400;10.808;2023-03-21T15:47:38;15.10;55.40
38514;DHT22;24282;48.400;10.808;2023-03-21T15:50:17;15.10;55.90
38514;DHT22;24282;48.400;10.808;2023-03-21T15:52:48;15.00;56.30
38514;DHT22;24282;48.400;10.808;2023-03-21T15:55:23;15.00;55.20
38514;DHT22;24282;48.400;10.808;2023-03-21T15:57:52;15.00;55.30
38514;DHT22;24282;48.400;10.808;2023-03-21T16:00:42;14.90;56.20
38514;DHT22;24282;48.400;10.808;2023-03-21T16:03:13;14.90;56.10
38514;DHT22;24282;48.400;10.808;2023-03-21T16:05:41;14.90;55.90
38514;DHT22;24282;48.400;10.808;2023-03-21T16:10:43;14.70;56.10
38514;DHT22;24282;48.400;10.808;2023-03-21T16:13:10;14.70;56.20
38514;DHT22;24282;48.400;10.808;2023-03-21T16:15:38;14.70;57.00
38514;DHT22;24282;48.400;10.808;2023-03-21T16:18:05;14.60;57.50
38514;DHT22;24282;48.400;10.808;2023-03-21T16:20:35;14.60;57.40
38514;DHT22;24282;48.400;10.808;2023-03-21T16:23:01;14.60;57.20
38514;DHT22;24282;48.400;10.808;2023-03-21T16:25:29;14.50;57.20
38514;DHT22;24282;48.400;10.808;2023-03-21T16:27:55;14.50;57.40
38514;DHT22;24282;48.400;10.808;2023-03-21T16:30:22;14.40;57.20
38514;DHT22;24282;48.400;10.808;2023-03-21T16:32:48;14.40;57.40
38514;DHT22;24282;48.400;10.808;2023-03-21T16:35:17;14.40;57.30
38514;DHT22;24282;48.400;10.808;2023-03-21T16:37:44;14.40;57.80
38514;DHT22;24282;48.400;10.808;2023-03-21T16:40:46;14.40;58.70
38514;DHT22;24282;48.400;10.808;2023-03-21T16:43:05;14.30;59.00
38514;DHT22;24282;48.400;10.808;2023-03-21T16:45:31;14.30;58.90
38514;DHT22;24282;48.400;10.808;2023-03-21T16:47:58;14.30;59.10
38514;DHT22;24282;48.400;10.808;2023-03-21T16:50:28;14.30;59.20
38514;DHT22;24282;48.400;10.808;2023-03-21T16:52:55;14.20;59.40
38514;DHT22;24282;48.400;10.808;2023-03-21T16:55:22;14.20;59.70
38514;DHT22;24282;48.400;10.808;2023-03-21T16:57:49;14.10;59.80
38514;DHT22;24282;48.400;10.808;2023-03-21T17:00:22;14.10;60.10
38514;DHT22;24282;48.400;10.808;2023-03-21T17:02:53;14.10;60.70
38514;DHT22;24282;48.400;10.808;2023-03-21T17:05:23;14.10;60.80
38514;DHT22;24282;48.400;10.808;2023-03-21T17:07:53;14.00;60.90
38514;DHT22;24282;48.400;10.808;2023-03-21T17:10:25;14.00;61.50
38514;DHT22;24282;48.400;10.808;2023-03-21T17:12:51;14.00;61.90
38514;DHT22;24282;48.400;10.808;2023-03-21T17:15:17;13.90;62.00
38514;DHT22;24282;48.400;10.808;2023-03-21T17:17:45;13.90;62.20
38514;DHT22;24282;48.400;10.808;2023-03-21T17:20:35;13.90;63.00
38514;DHT22;24282;48.400;10.808;2023-03-21T17:23:02;13.90;63.40
38514;DHT22;24282;48.400;10.808;2023-03-21T17:25:28;13.90;64.60
38514;DHT22;24282;48.400;10.808;2023-03-21T17:27:54;13.80;65.00
38514;DHT22;24282;48.400;10.808;2023-03-21T17:30:26;13.70;65.50
38514;DHT22;24282;48.400;10.808;2023-03-21T17:32:53;13.70;65.80
38514;DHT22;24282;48.400;10.808;2023-03-21T17:35:20;13.60;66.20
38514;DHT22;24282;48.400;10.808;2023-03-21T17:37:47;13.60;66.40
38514;DHT22;24282;48.400;10.808;2023-03-21T17:40:21;13.50;66.50
38514;DHT22;24282;48.400;10.808;2023-03-21T17:42:49;13.50;66.60
38514;DHT22;24282;48.400;10.808;2023-03-21T17:45:15;13.50;66.70
38514;DHT22;24282;48.400;10.808;2023-03-21T17:47:42;13.40;66.80
38514;DHT22;24282;48.400;10.808;2023-03-21T17:50:29;13.40;66.90
38514;DHT22;24282;48.400;10.808;2023-03-21T17:52:55;13.40;66.90
38514;DHT22;24282;48.400;10.808;2023-03-21T17:55:22;13.30;67.10